createdAt,value
2022-09-23T00:01:22.730Z,12.1
2022-09-23T00:16:22.660Z,12.2
2022-09-23T00:31:22.739Z,12.1
2022-09-23T00:46:22.694Z,11.9
2022-09-23T01:01:22.706Z,11.7
2022-09-23T01:16:22.641Z,11.7
2022-09-23T01:31:22.629Z,11.5
2022-09-23T02:01:22.611Z,11.5
2022-09-23T02:16:22.551Z,11.2
2022-09-23T02:31:22.489Z,10.9
2022-09-23T02:46:22.541Z,10.8
2022-09-23T03:01:22.564Z,10.5
2022-09-23T03:16:22.484Z,10.7
2022-09-23T03:31:22.396Z,11
2022-09-23T03:46:22.347Z,10.6
2022-09-23T04:01:22.487Z,10.7
2022-09-23T04:16:22.386Z,10.5
2022-09-23T04:31:22.332Z,10.5
2022-09-23T04:46:22.335Z,10.3
2022-09-23T05:01:22.313Z,10.6
2022-09-23T05:16:22.269Z,10.6
2022-09-23T05:31:22.257Z,10.5
2022-09-23T05:46:22.234Z,10.4
2022-09-23T06:01:22.234Z,10.3
2022-09-23T06:16:22.254Z,10.9
2022-09-23T06:31:22.199Z,13
2022-09-23T06:46:22.196Z,14.8
2022-09-23T07:01:22.203Z,16.5
2022-09-23T07:16:22.149Z,19.4
2022-09-23T07:31:32.876Z,20.9
2022-09-23T07:46:22.087Z,22.4
2022-09-23T08:01:22.071Z,22.2
2022-09-23T08:16:21.998Z,22.1
2022-09-23T08:46:21.988Z,21.9
2022-09-23T09:01:22.196Z,21.4
2022-09-23T09:16:41.814Z,22.7
2022-09-23T09:31:21.918Z,21.6
2022-09-23T09:46:21.868Z,20.4
2022-09-23T10:01:21.835Z,20.5
2022-09-23T10:16:21.749Z,21.2
2022-09-23T10:31:21.694Z,21.4
2022-09-23T10:46:21.774Z,22.9
2022-09-23T11:01:21.707Z,25.4
2022-09-23T11:16:21.641Z,25
2022-09-23T11:31:21.658Z,24.5
2022-09-23T11:46:21.615Z,24.2
2022-09-23T12:01:31.351Z,22.9
2022-09-23T12:16:21.565Z,22.5
2022-09-23T12:31:21.473Z,21.9
2022-09-23T12:46:21.612Z,22
2022-09-23T13:01:21.572Z,22.3
2022-09-23T13:16:21.499Z,22.8
2022-09-23T13:31:21.499Z,23
2022-09-23T13:46:21.510Z,22.9
2022-09-23T14:01:21.418Z,22.9
2022-09-23T14:16:21.343Z,22.8
2022-09-23T14:31:21.344Z,22.7
2022-09-23T14:46:21.353Z,22.8
2022-09-23T15:01:21.299Z,23
2022-09-23T15:16:21.236Z,22.8
2022-09-23T15:31:21.246Z,22.7
2022-09-23T15:46:21.235Z,22.3
2022-09-23T16:01:21.200Z,22.1
2022-09-23T16:16:21.269Z,22.1
2022-09-23T16:31:21.147Z,21.8
2022-09-23T16:46:21.254Z,21.4
2022-09-23T17:01:21.108Z,21.1
2022-09-23T17:16:21.080Z,20.8
2022-09-23T17:31:21.012Z,21
2022-09-23T17:46:21.104Z,20.8
2022-09-23T18:01:21.060Z,20.8
2022-09-23T18:16:20.969Z,20.8
2022-09-23T18:31:20.899Z,20.3
2022-09-23T18:46:20.909Z,19.9
2022-09-23T19:01:21.007Z,19.6
2022-09-23T19:16:20.833Z,19.3
2022-09-23T19:31:20.932Z,19.3
2022-09-23T19:46:20.764Z,19.1
2022-09-23T20:01:20.823Z,18.7
2022-09-23T20:16:20.792Z,18.6
2022-09-23T20:31:20.761Z,18.5
2022-09-23T20:46:20.672Z,18.3
2022-09-23T21:01:20.709Z,18.2
2022-09-23T21:16:20.668Z,18.1
2022-09-23T21:31:20.656Z,18
2022-09-23T21:46:20.874Z,17.8
2022-09-23T22:01:20.686Z,17.8
2022-09-23T22:16:20.545Z,17.8
2022-09-23T22:31:20.509Z,17.7
2022-09-23T22:46:20.447Z,17.8
2022-09-23T23:01:20.498Z,17.8
2022-09-23T23:16:20.412Z,17.2
2022-09-23T23:31:20.413Z,16.5
2022-09-23T23:46:20.369Z,16.4
